Time;durP1;ratioP1;P1;durP2;ratioP2;P2;SDS_P1;SDS_P2;PMS_P1;PMS_P2;Temp;Humidity;BMP_temperature;BMP_pressure;BME280_temperature;BME280_humidity;BME280_pressure;Samples;Min_cycle;Max_cycle;Signal;HPM_P1;HPM_P2
2023/05/01 00:01:55;;;;;;;4.67;4.47;;;13.60;99.90;;;;;;4934110;29;20225;-62
2023/05/01 00:04:22;;;;;;;5.60;4.83;;;13.60;99.90;;;;;;4933649;29;20301;-62
2023/05/01 00:06:49;;;;;;;4.90;4.50;;;13.60;99.90;;;;;;4915092;29;20206;-64
2023/05/01 00:09:17;;;;;;;5.63;5.23;;;13.50;99.90;;;;;;4931726;29;20213;-61
2023/05/01 00:11:44;;;;;;;5.60;5.20;;;13.30;99.90;;;;;;4933927;29;20604;-61
2023/05/01 00:14:12;;;;;;;4.43;4.23;;;13.20;99.90;;;;;;4930756;29;20226;-62
2023/05/01 00:16:39;;;;;;;5.30;5.00;;;13.20;99.90;;;;;;4931189;29;20300;-62
2023/05/01 00:19:07;;;;;;;5.67;5.23;;;13.20;99.90;;;;;;4932127;29;20668;-62
2023/05/01 00:21:34;;;;;;;5.43;4.97;;;13.10;99.90;;;;;;4933697;29;20200;-63
2023/05/01 00:24:01;;;;;;;4.70;4.40;;;13.10;99.90;;;;;;4933510;29;20276;-61
2023/05/01 00:26:30;;;;;;;5.63;5.23;;;13.00;99.90;;;;;;4926372;29;20202;-64
2023/05/01 00:28:57;;;;;;;5.43;5.03;;;13.00;99.90;;;;;;4929984;29;20198;-64
2023/05/01 00:31:25;;;;;;;5.80;5.40;;;12.90;99.90;;;;;;4930831;29;20209;-64
2023/05/01 00:33:52;;;;;;;5.47;5.17;;;12.80;99.90;;;;;;4928653;29;20214;-64
2023/05/01 00:36:21;;;;;;;6.27;5.87;;;12.70;99.90;;;;;;4933815;29;20256;-65
2023/05/01 00:38:48;;;;;;;5.93;5.40;;;12.70;99.90;;;;;;4933683;29;20686;-66
2023/05/01 00:41:15;;;;;;;4.77;4.47;;;12.70;99.90;;;;;;4932631;29;20713;-65
2023/05/01 00:43:43;;;;;;;5.63;5.10;;;12.70;99.90;;;;;;4932929;29;20556;-65
2023/05/01 00:46:11;;;;;;;5.80;5.40;;;12.70;99.90;;;;;;4933615;29;20252;-65
2023/05/01 00:48:38;;;;;;;5.13;4.77;;;12.70;99.90;;;;;;4930617;29;20294;-65
2023/05/01 00:51:07;;;;;;;5.57;5.17;;;12.70;99.90;;;;;;4933395;29;20267;-64
2023/05/01 00:53:36;;;;;;;5.17;4.80;;;12.70;99.90;;;;;;4933383;29;20716;-64
2023/05/01 00:56:04;;;;;;;6.67;5.93;;;12.70;99.90;;;;;;4931797;29;20202;-65
2023/05/01 00:58:31;;;;;;;5.50;5.20;;;12.60;99.90;;;;;;4914666;29;20312;-64
2023/05/01 01:00:58;;;;;;;5.20;4.90;;;12.50;99.90;;;;;;4914702;29;20716;-66
2023/05/01 01:03:25;;;;;;;5.80;5.50;;;12.50;99.90;;;;;;4914208;29;20226;-64
2023/05/01 01:05:57;;;;;;;6.77;6.27;;;12.60;99.90;;;;;;4915210;29;20285;-63
2023/05/01 01:08:29;;;;;;;6.03;5.43;;;12.50;99.90;;;;;;4929038;29;20260;-64
2023/05/01 01:11:08;;;;;;;7.17;5.67;;;12.50;99.90;;;;;;4933535;29;20280;-65
2023/05/01 01:13:42;;;;;;;7.40;6.70;;;12.40;99.90;;;;;;4933073;29;20599;-66
2023/05/01 01:16:17;;;;;;;6.67;6.27;;;12.40;99.90;;;;;;4933585;29;20202;-64
2023/05/01 01:18:53;;;;;;;7.53;7.03;;;12.40;99.90;;;;;;4932076;29;20205;-66
2023/05/01 01:21:27;;;;;;;5.90;5.50;;;12.50;99.90;;;;;;4931531;29;20206;-66
2023/05/01 01:24:26;;;;;;;7.27;6.77;;;12.50;99.90;;;;;;4932960;29;20310;-65
2023/05/01 01:27:30;;;;;;;7.37;6.20;;;12.60;99.90;;;;;;4924392;29;20205;-63
2023/05/01 01:30:23;;;;;;;7.33;6.73;;;12.60;99.90;;;;;;4932580;29;20212;-63
2023/05/01 01:33:08;;;;;;;6.00;5.50;;;12.50;99.90;;;;;;4933835;29;20257;-64
2023/05/01 01:35:38;;;;;;;6.47;6.00;;;12.50;99.90;;;;;;4929752;29;20224;-64
2023/05/01 01:38:09;;;;;;;10.73;6.03;;;12.40;99.90;;;;;;4934316;29;20217;-63
2023/05/01 01:40:44;;;;;;;6.93;6.43;;;12.40;99.90;;;;;;4936377;29;20234;-65
2023/05/01 01:43:16;;;;;;;7.30;6.57;;;12.30;99.90;;;;;;4934893;29;20276;-63
2023/05/01 01:45:48;;;;;;;7.73;7.10;;;12.30;99.90;;;;;;4928381;29;20213;-62
2023/05/01 01:48:19;;;;;;;7.40;6.90;;;12.30;99.90;;;;;;4930336;29;20273;-62
2023/05/01 01:50:48;;;;;;;7.17;6.53;;;12.20;99.90;;;;;;4935983;29;20234;-63
2023/05/01 01:53:18;;;;;;;6.93;6.43;;;12.30;99.90;;;;;;4936343;29;20204;-61
2023/05/01 01:55:47;;;;;;;7.17;6.67;;;12.30;99.90;;;;;;4936391;29;20263;-63
2023/05/01 01:58:17;;;;;;;6.10;5.63;;;12.20;99.90;;;;;;4923244;29;20213;-62
2023/05/01 02:00:45;;;;;;;7.27;6.77;;;12.20;99.90;;;;;;4936079;29;20315;-61
2023/05/01 02:03:14;;;;;;;5.93;5.53;;;12.20;99.90;;;;;;4933084;29;20228;-63
2023/05/01 02:05:43;;;;;;;6.33;5.77;;;12.20;99.90;;;;;;4935500;29;20261;-63
2023/05/01 02:08:13;;;;;;;7.20;6.60;;;12.20;99.90;;;;;;4936173;29;20206;-62
2023/05/01 02:10:41;;;;;;;7.60;6.90;;;12.20;99.90;;;;;;4933219;29;20335;-63
2023/05/01 02:13:10;;;;;;;7.03;6.53;;;12.10;99.90;;;;;;4935964;29;20268;-61
2023/05/01 02:15:39;;;;;;;6.97;6.37;;;12.10;99.90;;;;;;4936445;29;20264;-62
2023/05/01 02:18:06;;;;;;;6.97;6.37;;;12.10;99.90;;;;;;4934437;29;20246;-63
2023/05/01 02:20:34;;;;;;;7.70;7.00;;;12.20;99.90;;;;;;4936074;29;20725;-63
2023/05/01 02:23:04;;;;;;;6.63;5.90;;;12.20;99.90;;;;;;4934192;29;20317;-62
2023/05/01 02:25:36;;;;;;;7.90;7.10;;;12.20;99.90;;;;;;4928026;29;20638;-62
2023/05/01 02:28:09;;;;;;;7.60;6.90;;;12.20;99.90;;;;;;4935666;29;20212;-62
2023/05/01 02:30:37;;;;;;;7.40;6.63;;;12.30;99.90;;;;;;4935850;29;20205;-62
2023/05/01 02:33:06;;;;;;;6.53;6.03;;;12.30;99.90;;;;;;4933068;29;20225;-61
2023/05/01 02:35:39;;;;;;;7.40;6.80;;;12.20;99.90;;;;;;4931449;29;20212;-63
2023/05/01 02:38:07;;;;;;;6.90;6.40;;;12.30;99.90;;;;;;4935227;29;20695;-62
2023/05/01 02:40:38;;;;;;;7.53;7.03;;;12.40;99.90;;;;;;4935292;29;20297;-63
2023/05/01 02:43:09;;;;;;;7.37;6.63;;;12.30;99.90;;;;;;4934825;29;20292;-62
2023/05/01 02:45:37;;;;;;;7.00;6.50;;;12.30;99.90;;;;;;4939195;23;20237;-63
2023/05/01 02:48:07;;;;;;;7.77;7.00;;;12.30;99.90;;;;;;4913873;29;20268;-58
2023/05/01 02:50:36;;;;;;;6.90;6.40;;;12.20;99.90;;;;;;4915022;29;20217;-60
2023/05/01 02:53:03;;;;;;;7.70;7.00;;;12.20;99.90;;;;;;4916451;29;20334;-63
2023/05/01 02:55:30;;;;;;;7.80;7.10;;;12.30;99.90;;;;;;4916545;29;20231;-58
2023/05/01 02:58:00;;;;;;;7.63;6.87;;;12.30;99.90;;;;;;4916494;29;20216;-58
2023/05/01 03:00:27;;;;;;;7.37;6.83;;;12.30;99.90;;;;;;4914034;29;20234;-55
2023/05/01 03:02:54;;;;;;;7.83;7.33;;;12.30;99.90;;;;;;4909996;29;20228;-56
2023/05/01 03:05:21;;;;;;;7.50;6.93;;;12.30;99.90;;;;;;4916340;29;20226;-57
2023/05/01 03:07:50;;;;;;;7.70;6.90;;;12.20;99.90;;;;;;4916384;29;20203;-58
2023/05/01 03:10:17;;;;;;;6.53;6.00;;;12.30;99.90;;;;;;4916530;29;20591;-57
2023/05/01 03:12:44;;;;;;;6.77;6.27;;;12.30;99.90;;;;;;4913860;29;20202;-59
2023/05/01 03:15:12;;;;;;;8.13;7.17;;;12.30;99.90;;;;;;4916195;29;20225;-57
2023/05/01 03:17:39;;;;;;;9.50;8.60;;;12.20;99.90;;;;;;4915177;29;20276;-56
2023/05/01 03:20:08;;;;;;;7.43;6.83;;;12.30;99.90;;;;;;4916019;29;20746;-58
2023/05/01 03:22:35;;;;;;;7.80;7.10;;;12.30;99.90;;;;;;4911645;29;20207;-59
2023/05/01 03:25:03;;;;;;;7.30;6.70;;;12.30;99.90;;;;;;4910597;29;20236;-58
2023/05/01 03:27:30;;;;;;;8.67;7.97;;;12.20;99.90;;;;;;4908302;29;20296;-60
2023/05/01 03:29:57;;;;;;;8.13;7.50;;;12.20;99.90;;;;;;4916240;29;20292;-61
2023/05/01 03:32:29;;;;;;;8.67;7.97;;;12.20;99.90;;;;;;4905211;29;20207;-59
2023/05/01 03:34:56;;;;;;;7.60;6.90;;;12.10;99.90;;;;;;4911667;29;20320;-57
2023/05/01 03:37:23;;;;;;;9.83;8.83;;;12.10;99.90;;;;;;4913238;29;20207;-60
2023/05/01 03:39:50;;;;;;;9.00;8.27;;;12.10;99.90;;;;;;4914732;29;20212;-57
2023/05/01 03:42:17;;;;;;;7.97;7.27;;;11.90;99.90;;;;;;4914183;29;20230;-58
2023/05/01 03:44:45;;;;;;;8.93;7.00;;;11.80;99.90;;;;;;4913155;29;20280;-58
2023/05/01 03:47:12;;;;;;;8.40;7.70;;;11.80;99.90;;;;;;4913797;29;20205;-59
2023/05/01 03:49:42;;;;;;;8.70;7.87;;;11.80;99.90;;;;;;4912835;29;20213;-59
2023/05/01 03:52:09;;;;;;;8.43;7.80;;;11.70;99.90;;;;;;4914284;29;20208;-58
2023/05/01 03:54:37;;;;;;;8.77;8.07;;;11.70;99.90;;;;;;4913923;29;20217;-61
2023/05/01 03:57:04;;;;;;;10.83;9.10;;;11.60;99.90;;;;;;4915417;29;20672;-57
2023/05/01 03:59:31;;;;;;;9.17;8.30;;;11.40;99.90;;;;;;4912728;29;20216;-56
2023/05/01 04:01:58;;;;;;;9.67;8.63;;;11.50;99.90;;;;;;4914109;29;20200;-56
2023/05/01 04:04:25;;;;;;;8.33;7.57;;;11.50;99.90;;;;;;4913829;29;20229;-56
2023/05/01 04:06:53;;;;;;;9.50;8.70;;;11.50;99.90;;;;;;4912550;29;20201;-59
2023/05/01 04:09:20;;;;;;;8.67;7.87;;;11.50;99.90;;;;;;4914297;29;20212;-55
2023/05/01 04:11:47;;;;;;;9.23;8.53;;;11.60;99.90;;;;;;4914394;29;20194;-58
2023/05/01 04:14:15;;;;;;;10.60;9.63;;;11.50;99.90;;;;;;4911022;29;20222;-58
2023/05/01 04:16:42;;;;;;;10.00;9.07;;;11.40;99.90;;;;;;4914023;29;20201;-57
2023/05/01 04:19:09;;;;;;;9.93;8.97;;;11.40;99.90;;;;;;4911139;29;20217;-59
2023/05/01 04:21:36;;;;;;;9.37;8.67;;;11.40;99.90;;;;;;4913565;29;20288;-59
2023/05/01 04:24:04;;;;;;;9.90;9.10;;;11.50;99.90;;;;;;4913299;29;20272;-61
2023/05/01 04:26:31;;;;;;;10.03;9.03;;;11.50;99.90;;;;;;4914105;29;20667;-57
2023/05/01 04:28:59;;;;;;;9.60;8.73;;;11.30;99.90;;;;;;4906919;29;21638;-60
2023/05/01 04:31:26;;;;;;;10.90;9.50;;;11.30;99.90;;;;;;4913796;29;20206;-57
2023/05/01 04:33:53;;;;;;;10.33;9.17;;;11.20;99.90;;;;;;4913519;29;20225;-63
2023/05/01 04:36:20;;;;;;;11.03;9.93;;;11.10;99.90;;;;;;4914021;29;20304;-59
2023/05/01 04:38:47;;;;;;;10.80;9.70;;;11.10;99.90;;;;;;4912784;29;20209;-56
2023/05/01 04:41:15;;;;;;;11.07;10.17;;;10.90;99.90;;;;;;4916187;29;20743;-58
2023/05/01 04:43:42;;;;;;;11.90;9.77;;;10.90;99.90;;;;;;4908874;29;20590;-57
2023/05/01 04:46:09;;;;;;;11.07;10.07;;;11.00;99.90;;;;;;4913863;29;20205;-58
2023/05/01 04:48:36;;;;;;;10.10;9.03;;;11.00;99.90;;;;;;4913921;29;20207;-59
2023/05/01 04:51:03;;;;;;;10.83;9.93;;;11.10;99.90;;;;;;4915310;29;20267;-55
2023/05/01 04:53:30;;;;;;;10.67;9.77;;;11.10;99.90;;;;;;4914924;29;20277;-57
2023/05/01 04:55:57;;;;;;;10.57;9.47;;;11.10;99.90;;;;;;4912521;29;20669;-57
2023/05/01 04:58:26;;;;;;;9.43;8.63;;;11.10;99.90;;;;;;4909807;29;20611;-56
2023/05/01 05:00:53;;;;;;;9.73;8.93;;;11.10;99.90;;;;;;4917856;29;20280;-59
2023/05/01 05:03:20;;;;;;;11.40;10.30;;;11.00;99.90;;;;;;4918166;29;20716;-59
2023/05/01 05:05:47;;;;;;;10.70;9.70;;;11.00;99.90;;;;;;4918724;29;20229;-60
2023/05/01 05:08:13;;;;;;;12.13;10.93;;;11.10;99.90;;;;;;4918478;29;20676;-58
2023/05/01 05:10:40;;;;;;;11.63;10.53;;;11.00;99.90;;;;;;4918420;29;20264;-61
2023/05/01 05:13:08;;;;;;;11.17;10.10;;;11.00;99.90;;;;;;4912798;29;20257;-61
2023/05/01 05:15:36;;;;;;;10.93;9.93;;;11.00;99.90;;;;;;4918104;29;20234;-59
2023/05/01 05:18:04;;;;;;;11.27;10.17;;;10.90;99.90;;;;;;4918252;29;20673;-61
2023/05/01 05:20:31;;;;;;;10.93;9.80;;;10.90;99.90;;;;;;4918387;29;20304;-59
2023/05/01 05:22:57;;;;;;;11.50;10.30;;;10.80;99.90;;;;;;4918080;29;20213;-59
2023/05/01 05:25:24;;;;;;;11.23;10.13;;;10.80;99.90;;;;;;4916507;29;20230;-58
2023/05/01 05:27:52;;;;;;;11.73;10.50;;;10.80;99.90;;;;;;4913162;29;20204;-59
2023/05/01 05:30:18;;;;;;;10.90;9.90;;;10.80;99.90;;;;;;4912720;29;20217;-55
2023/05/01 05:32:48;;;;;;;10.83;9.83;;;10.90;99.90;;;;;;4898982;29;20676;-55
2023/05/01 05:35:15;;;;;;;10.60;9.43;;;10.90;99.90;;;;;;4899216;29;20226;-56
2023/05/01 05:37:42;;;;;;;11.77;10.57;;;10.90;99.90;;;;;;4899199;29;20210;-59
2023/05/01 05:40:10;;;;;;;10.80;9.80;;;10.90;99.90;;;;;;4912177;29;20198;-58
2023/05/01 05:42:37;;;;;;;10.53;9.43;;;10.90;99.90;;;;;;4917523;29;20283;-59
2023/05/01 05:45:04;;;;;;;16.13;10.50;;;10.90;99.90;;;;;;4917577;29;20300;-59
2023/05/01 05:47:31;;;;;;;12.13;10.83;;;11.00;99.90;;;;;;4911411;29;20277;-61
2023/05/01 05:49:59;;;;;;;10.47;9.47;;;11.00;99.90;;;;;;4898876;29;20751;-59
2023/05/01 05:52:29;;;;;;;11.33;10.13;;;10.90;99.90;;;;;;4898726;29;20213;-58
2023/05/01 05:54:56;;;;;;;10.37;9.43;;;11.00;99.90;;;;;;4904678;29;20232;-62
2023/05/01 05:57:25;;;;;;;12.70;10.40;;;11.00;99.90;;;;;;4912031;29;20763;-60
2023/05/01 05:59:53;;;;;;;9.83;8.90;;;11.00;99.90;;;;;;4910842;29;20223;-60
2023/05/01 06:02:20;;;;;;;9.33;8.43;;;11.10;99.90;;;;;;4911858;29;20209;-60
2023/05/01 06:04:47;;;;;;;11.23;10.07;;;11.10;99.90;;;;;;4910695;29;20231;-60
2023/05/01 06:07:16;;;;;;;10.33;9.37;;;11.10;99.90;;;;;;4910884;29;20217;-60
2023/05/01 06:09:43;;;;;;;10.73;9.63;;;11.10;99.90;;;;;;4916934;29;20201;-59
2023/05/01 06:12:10;;;;;;;11.50;9.93;;;11.10;99.90;;;;;;4911843;29;20340;-60
2023/05/01 06:14:39;;;;;;;10.40;8.73;;;11.20;99.90;;;;;;4915624;29;20616;-60
2023/05/01 06:17:07;;;;;;;10.33;9.30;;;11.20;99.90;;;;;;4912064;29;20201;-60
2023/05/01 06:19:34;;;;;;;11.17;9.30;;;11.20;99.90;;;;;;4915691;29;20620;-60
2023/05/01 06:22:01;;;;;;;10.20;9.33;;;11.30;99.90;;;;;;4913876;29;20212;-60
2023/05/01 06:24:30;;;;;;;9.57;8.87;;;11.30;99.90;;;;;;4914401;29;20790;-60
2023/05/01 06:26:57;;;;;;;10.83;9.83;;;11.40;99.90;;;;;;4915977;29;20261;-60
2023/05/01 06:29:24;;;;;;;11.43;10.37;;;11.30;99.90;;;;;;4915664;29;20588;-60
2023/05/01 06:31:50;;;;;;;10.53;9.53;;;11.30;99.90;;;;;;4915679;29;20249;-59
2023/05/01 06:34:17;;;;;;;10.57;9.57;;;11.30;99.90;;;;;;4915082;29;20218;-60
2023/05/01 06:36:44;;;;;;;10.30;9.30;;;11.10;99.90;;;;;;4915080;29;20204;-60
2023/05/01 06:39:11;;;;;;;9.40;8.60;;;11.10;99.90;;;;;;4916226;29;20220;-56
2023/05/01 06:41:40;;;;;;;9.37;8.67;;;11.10;99.90;;;;;;4915416;29;20261;-59
2023/05/01 06:44:07;;;;;;;8.90;8.10;;;11.20;99.90;;;;;;4910464;29;20284;-59
2023/05/01 06:46:33;;;;;;;9.83;8.90;;;11.20;99.90;;;;;;4915453;29;20197;-60
2023/05/01 06:49:00;;;;;;;10.57;9.67;;;11.30;99.90;;;;;;4913931;29;20280;-59
2023/05/01 06:51:29;;;;;;;10.37;9.37;;;11.30;99.90;;;;;;4912751;29;20252;-60
2023/05/01 06:53:56;;;;;;;9.87;8.97;;;11.40;99.90;;;;;;4904407;29;20750;-59
2023/05/01 06:56:23;;;;;;;10.80;9.80;;;11.50;99.90;;;;;;4904431;29;20242;-59
2023/05/01 06:58:51;;;;;;;10.90;9.80;;;11.50;99.90;;;;;;4907256;29;20232;-59
2023/05/01 07:01:18;;;;;;;11.97;10.80;;;11.50;99.90;;;;;;4907594;29;20209;-60
2023/05/01 07:03:45;;;;;;;10.70;9.70;;;11.50;99.90;;;;;;4912752;29;20208;-60
2023/05/01 07:06:12;;;;;;;10.53;9.53;;;11.50;99.90;;;;;;4913223;29;20209;-59
2023/05/01 07:08:39;;;;;;;10.90;9.73;;;11.50;99.90;;;;;;4915376;29;20675;-60
2023/05/01 07:11:06;;;;;;;11.23;10.07;;;11.40;99.90;;;;;;4919125;29;20225;-60
2023/05/01 07:13:34;;;;;;;10.60;9.50;;;11.50;99.90;;;;;;4908643;29;20273;-59
2023/05/01 07:16:02;;;;;;;11.63;10.53;;;11.60;99.90;;;;;;4914402;29;20242;-59
2023/05/01 07:18:29;;;;;;;10.17;9.27;;;11.60;99.90;;;;;;4914600;29;20197;-60
2023/05/01 07:20:56;;;;;;;10.73;9.83;;;11.60;99.90;;;;;;4914269;29;20202;-60
2023/05/01 07:23:24;;;;;;;13.87;9.40;;;11.60;99.90;;;;;;4914509;29;20209;-59
2023/05/01 07:25:51;;;;;;;10.97;9.97;;;11.60;99.90;;;;;;4914950;29;20293;-59
2023/05/01 07:28:19;;;;;;;10.70;9.60;;;11.60;99.90;;;;;;4916474;29;20200;-59
2023/05/01 07:30:46;;;;;;;15.80;12.23;;;11.60;99.90;;;;;;4910579;29;20215;-60
2023/05/01 07:33:15;;;;;;;10.33;9.20;;;11.80;99.90;;;;;;4914180;29;20735;-59
2023/05/01 07:35:42;;;;;;;11.47;10.37;;;11.80;99.90;;;;;;4914087;29;20726;-60
2023/05/01 07:38:09;;;;;;;10.83;9.73;;;11.80;99.90;;;;;;4914817;29;20202;-59
2023/05/01 07:40:37;;;;;;;11.83;10.80;;;11.70;99.90;;;;;;4912448;29;20205;-60
2023/05/01 07:43:04;;;;;;;10.90;9.80;;;11.80;99.90;;;;;;4911912;29;20227;-59
2023/05/01 07:45:31;;;;;;;11.37;10.30;;;11.80;99.90;;;;;;4912035;29;20220;-60
2023/05/01 07:47:58;;;;;;;10.70;9.63;;;11.80;99.90;;;;;;4908350;29;20240;-60
2023/05/01 07:50:26;;;;;;;12.47;11.17;;;11.80;99.90;;;;;;4913690;29;20256;-61
2023/05/01 07:52:53;;;;;;;10.47;9.57;;;11.90;99.90;;;;;;4911297;29;20678;-60
2023/05/01 07:55:22;;;;;;;11.23;10.13;;;11.90;99.90;;;;;;4909493;29;20225;-60
2023/05/01 07:57:49;;;;;;;11.10;9.87;;;12.00;99.90;;;;;;4914601;29;20731;-60
2023/05/01 08:00:17;;;;;;;11.40;10.10;;;12.00;99.90;;;;;;4904024;29;20222;-60
2023/05/01 08:02:44;;;;;;;12.10;11.00;;;12.10;99.90;;;;;;4911348;29;20586;-60
2023/05/01 08:05:11;;;;;;;10.40;9.40;;;12.20;99.90;;;;;;4907202;29;20226;-60
2023/05/01 08:07:39;;;;;;;11.07;10.13;;;12.20;99.90;;;;;;4910495;29;20214;-60
2023/05/01 08:10:07;;;;;;;10.07;9.17;;;12.30;99.90;;;;;;4914854;29;20208;-60
2023/05/01 08:12:34;;;;;;;10.67;9.47;;;12.30;99.90;;;;;;4914030;29;20672;-60
2023/05/01 08:15:01;;;;;;;11.97;10.33;;;12.40;99.90;;;;;;4913822;29;20262;-60
2023/05/01 08:17:30;;;;;;;11.80;10.57;;;12.40;99.90;;;;;;4915180;29;20266;-60
2023/05/01 08:19:57;;;;;;;12.40;11.27;;;12.40;99.90;;;;;;4911741;29;20213;-60
2023/05/01 08:22:24;;;;;;;10.80;9.70;;;12.40;99.90;;;;;;4912775;29;20206;-60
2023/05/01 08:24:53;;;;;;;11.97;10.77;;;12.50;99.90;;;;;;4913927;29;20579;-60
2023/05/01 08:27:20;;;;;;;10.87;9.83;;;12.50;99.90;;;;;;4913911;29;20199;-60
2023/05/01 08:29:47;;;;;;;12.43;10.53;;;12.60;99.90;;;;;;4913845;29;20205;-60
2023/05/01 08:32:14;;;;;;;13.63;12.33;;;12.40;99.90;;;;;;4906682;29;20205;-60
2023/05/01 08:34:41;;;;;;;12.10;10.90;;;12.40;99.90;;;;;;4914432;29;20224;-60
2023/05/01 08:37:08;;;;;;;11.33;10.20;;;12.50;99.90;;;;;;4914526;29;20210;-60
2023/05/01 08:39:35;;;;;;;10.93;10.00;;;12.60;99.90;;;;;;4919486;29;20213;-60
2023/05/01 08:42:04;;;;;;;12.17;10.97;;;12.60;99.90;;;;;;4918164;29;20677;-60
2023/05/01 08:44:32;;;;;;;11.20;10.20;;;12.60;99.90;;;;;;4913822;29;20289;-60
2023/05/01 08:47:10;;;;;;;11.73;10.63;;;12.50;99.90;;;;;;4916285;29;20205;-60
2023/05/01 08:49:39;;;;;;;11.13;10.17;;;12.60;99.90;;;;;;4916762;29;20628;-60
2023/05/01 08:52:07;;;;;;;11.83;10.63;;;12.50;99.90;;;;;;4917413;29;20252;-60
2023/05/01 08:54:37;;;;;;;11.40;10.20;;;12.60;99.90;;;;;;4914503;29;20218;-60
2023/05/01 08:57:09;;;;;;;10.97;9.87;;;12.60;99.90;;;;;;4915564;29;20205;-60
2023/05/01 08:59:37;;;;;;;11.80;10.70;;;12.60;99.90;;;;;;4914608;29;20233;-60
2023/05/01 09:02:04;;;;;;;11.27;10.27;;;12.50;99.90;;;;;;4917021;29;20731;-60
2023/05/01 09:04:34;;;;;;;12.20;11.00;;;12.40;99.90;;;;;;4916192;29;20274;-60
2023/05/01 09:07:01;;;;;;;11.27;10.00;;;12.40;99.90;;;;;;4917485;29;20250;-60
2023/05/01 09:09:28;;;;;;;9.77;8.90;;;12.40;99.90;;;;;;4920653;29;20206;-60
2023/05/01 09:12:00;;;;;;;10.23;9.30;;;12.40;99.90;;;;;;4900308;29;20209;-59
2023/05/01 09:14:29;;;;;;;12.40;10.77;;;12.40;99.90;;;;;;4914192;29;20704;-67
2023/05/01 09:16:56;;;;;;;10.97;9.90;;;12.40;99.90;;;;;;4917227;29;20202;-59
2023/05/01 09:19:23;;;;;;;11.53;10.33;;;12.50;99.90;;;;;;4916858;29;20254;-59
2023/05/01 09:21:50;;;;;;;12.27;11.10;;;12.50;99.90;;;;;;4917168;29;20264;-59
2023/05/01 09:24:17;;;;;;;12.03;10.93;;;12.70;99.90;;;;;;4916616;29;20236;-68
2023/05/01 09:26:44;;;;;;;12.17;11.00;;;12.70;99.90;;;;;;4916863;29;20254;-69
2023/05/01 09:29:13;;;;;;;11.20;10.03;;;12.70;99.90;;;;;;4913817;29;20209;-69
2023/05/01 09:31:42;;;;;;;11.83;10.73;;;12.70;99.90;;;;;;4914539;29;20227;-70
2023/05/01 09:34:09;;;;;;;12.10;10.97;;;12.70;99.90;;;;;;4913066;29;20218;-70
2023/05/01 09:36:36;;;;;;;11.63;10.43;;;12.60;99.90;;;;;;4912605;29;20205;-68
2023/05/01 09:39:04;;;;;;;9.03;8.33;;;12.60;99.90;;;;;;4903777;29;20203;-61
2023/05/01 09:41:32;;;;;;;9.60;8.80;;;12.60;99.90;;;;;;4903475;29;20206;-63
2023/05/01 09:44:00;;;;;;;9.87;9.07;;;12.60;99.90;;;;;;4912644;29;20247;-53
2023/05/01 09:46:27;;;;;;;14.53;11.13;;;12.60;99.90;;;;;;4910343;29;20222;-53
2023/05/01 09:48:57;;;;;;;13.83;12.43;;;12.70;99.90;;;;;;4915081;29;20738;-52
2023/05/01 09:51:26;;;;;;;12.27;10.97;;;12.70;99.90;;;;;;4916721;29;20212;-53
2023/05/01 09:53:55;;;;;;;10.77;9.87;;;12.70;99.90;;;;;;4916250;29;20579;-53
2023/05/01 09:56:23;;;;;;;11.87;10.63;;;12.80;99.90;;;;;;4912761;29;20199;-54
2023/05/01 09:58:51;;;;;;;10.67;9.70;;;12.80;99.90;;;;;;4916359;29;20265;-53
2023/05/01 10:01:18;;;;;;;12.50;11.30;;;12.80;99.90;;;;;;4914776;29;20680;-53
2023/05/01 10:03:46;;;;;;;9.37;8.67;;;12.80;99.90;;;;;;4912304;29;20201;-53
2023/05/01 10:06:27;;;;;;;9.30;8.60;;;12.90;99.90;;;;;;4916417;29;20229;-53
2023/05/01 10:08:54;;;;;;;9.37;8.57;;;12.90;99.90;;;;;;4916073;29;20768;-66
2023/05/01 10:11:22;;;;;;;10.60;9.60;;;13.00;99.90;;;;;;4907189;29;20259;-52
2023/05/01 10:14:08;;;;;;;9.93;9.00;;;13.00;99.90;;;;;;4912406;29;20233;-52
2023/05/01 10:16:36;;;;;;;9.93;9.03;;;13.00;99.90;;;;;;4908219;29;20248;-52
2023/05/01 10:19:04;;;;;;;10.50;9.60;;;13.20;99.90;;;;;;4915313;29;20683;-52
2023/05/01 10:21:33;;;;;;;18.67;17.03;;;13.30;99.90;;;;;;4908390;29;20214;-52
2023/05/01 10:24:02;;;;;;;12.30;11.30;;;13.30;99.90;;;;;;4936132;23;20230;-55
2023/05/01 10:26:29;;;;;;;13.70;12.60;;;13.20;99.90;;;;;;4907144;29;20341;-55
2023/05/01 10:28:58;;;;;;;14.10;12.60;;;13.30;99.90;;;;;;4906715;29;20292;-56
2023/05/01 10:31:26;;;;;;;25.90;23.10;;;13.40;99.90;;;;;;4909468;29;20205;-55
2023/05/01 10:33:54;;;;;;;11.77;10.60;;;13.50;99.90;;;;;;4886961;29;20237;-55
2023/05/01 10:36:25;;;;;;;9.80;8.90;;;13.50;99.90;;;;;;4877754;29;20262;-55
2023/05/01 10:38:54;;;;;;;11.47;9.77;;;13.50;99.90;;;;;;4891358;29;20266;-55
2023/05/01 10:41:54;;;;;;;9.40;8.70;;;13.40;99.90;;;;;;4898642;29;20637;-55
2023/05/01 10:44:22;;;;;;;10.53;9.33;;;13.40;99.90;;;;;;4894904;29;20337;-55
2023/05/01 10:46:48;;;;;;;9.40;8.50;;;13.40;99.90;;;;;;4896572;29;20249;-55
2023/05/01 10:49:16;;;;;;;10.60;7.77;;;13.40;99.90;;;;;;4895321;29;20660;-54
2023/05/01 10:51:58;;;;;;;8.57;7.87;;;13.30;99.90;;;;;;4896732;29;20199;-55
2023/05/01 10:54:27;;;;;;;8.23;7.57;;;13.30;99.90;;;;;;4887613;29;20635;-55
2023/05/01 10:56:57;;;;;;;8.47;7.60;;;13.40;99.90;;;;;;4895681;29;20621;-55
2023/05/01 10:59:24;;;;;;;9.93;9.03;;;13.40;99.90;;;;;;4896416;29;20215;-55
2023/05/01 11:01:53;;;;;;;11.13;9.30;;;13.40;99.90;;;;;;4909944;29;20255;-56
2023/05/01 11:04:54;;;;;;;9.30;8.43;;;13.40;99.90;;;;;;4901099;29;20260;-55
2023/05/01 11:07:23;;;;;;;9.93;8.63;;;13.50;99.90;;;;;;4888278;29;20203;-55
2023/05/01 11:09:57;;;;;;;9.37;8.47;;;13.40;99.90;;;;;;4894025;29;20227;-55
2023/05/01 11:12:49;;;;;;;9.07;8.40;;;13.50;99.90;;;;;;4890129;29;20612;-55
2023/05/01 11:15:26;;;;;;;8.80;8.10;;;13.60;99.90;;;;;;4887322;29;20267;-55
2023/05/01 11:17:54;;;;;;;9.20;8.43;;;13.70;99.90;;;;;;4897043;29;20211;-55
2023/05/01 11:20:47;;;;;;;9.40;8.67;;;13.70;99.90;;;;;;4894303;29;20264;-54
2023/05/01 11:23:21;;;;;;;9.13;8.33;;;13.90;99.90;;;;;;4891965;29;20259;-55
2023/05/01 11:25:50;;;;;;;8.53;7.73;;;14.00;99.90;;;;;;4899040;29;20215;-56
2023/05/01 11:28:23;;;;;;;9.20;8.40;;;14.10;99.90;;;;;;4895987;29;20214;-54
2023/05/01 11:30:50;;;;;;;8.07;7.47;;;14.20;99.90;;;;;;4896802;29;20199;-55
2023/05/01 11:33:27;;;;;;;9.53;8.63;;;14.40;99.90;;;;;;4897117;29;20227;-55
2023/05/01 11:36:01;;;;;;;8.17;7.60;;;14.40;99.90;;;;;;4896755;29;20199;-56
2023/05/01 11:38:28;;;;;;;9.03;8.30;;;14.50;99.90;;;;;;4893664;29;20595;-56
2023/05/01 11:41:00;;;;;;;10.50;9.53;;;14.60;99.90;;;;;;4888932;29;20207;-55
2023/05/01 11:43:27;;;;;;;7.97;7.37;;;14.50;99.90;;;;;;4895942;29;20313;-55
2023/05/01 11:46:00;;;;;;;8.20;7.53;;;14.70;99.90;;;;;;4892708;29;20255;-56
2023/05/01 11:48:29;;;;;;;9.43;8.53;;;14.80;99.90;;;;;;4896700;29;20282;-55
2023/05/01 11:50:56;;;;;;;7.33;6.73;;;14.60;99.90;;;;;;4896489;29;20198;-55
2023/05/01 11:53:23;;;;;;;8.20;7.60;;;14.80;99.90;;;;;;4898786;29;20219;-55
2023/05/01 11:55:50;;;;;;;7.77;7.17;;;14.90;99.90;;;;;;4896593;29;20510;-55
2023/05/01 11:58:31;;;;;;;8.30;7.63;;;14.90;99.90;;;;;;4896482;29;20212;-56
2023/05/01 12:00:58;;;;;;;7.30;6.70;;;14.90;99.90;;;;;;4895995;29;20203;-56
2023/05/01 12:03:25;;;;;;;7.03;6.53;;;14.90;99.90;;;;;;4895298;29;20597;-55
2023/05/01 12:05:53;;;;;;;7.57;6.97;;;15.00;99.90;;;;;;4896482;29;20219;-56
2023/05/01 12:08:22;;;;;;;6.87;6.43;;;15.20;99.90;;;;;;4892633;29;20200;-55
2023/05/01 12:10:50;;;;;;;5.90;5.50;;;15.30;99.90;;;;;;4895845;29;20288;-56
2023/05/01 12:13:19;;;;;;;5.17;4.87;;;15.60;99.90;;;;;;4895129;29;20219;-56
2023/05/01 12:15:47;;;;;;;6.30;5.90;;;15.80;99.90;;;;;;4893913;29;20195;-54
2023/05/01 12:18:16;;;;;;;2.90;2.80;;;16.00;99.90;;;;;;4895096;29;20258;-55
2023/05/01 12:20:46;;;;;;;2.67;2.57;;;16.10;99.90;;;;;;4897680;29;20203;-55
2023/05/01 12:23:15;;;;;;;2.20;2.20;;;16.30;99.90;;;;;;4894804;29;20226;-55
2023/05/01 12:25:43;;;;;;;3.20;2.80;;;16.40;99.90;;;;;;4895246;29;20302;-56
2023/05/01 12:28:11;;;;;;;2.20;2.10;;;16.40;99.90;;;;;;4898619;29;20327;-55
2023/05/01 12:30:40;;;;;;;2.40;2.30;;;16.40;99.90;;;;;;4895747;29;20235;-55
2023/05/01 12:33:11;;;;;;;2.97;2.80;;;16.40;99.90;;;;;;4891969;29;20743;-56
2023/05/01 12:35:39;;;;;;;2.70;2.60;;;16.10;99.90;;;;;;4894102;29;20567;-55
2023/05/01 12:38:16;;;;;;;2.90;2.57;;;16.00;99.90;;;;;;4895900;29;20223;-68
2023/05/01 12:40:54;;;;;;;2.27;2.17;;;15.90;99.90;;;;;;4895912;29;20206;-69
2023/05/01 12:43:22;;;;;;;2.00;2.00;;;15.90;99.90;;;;;;4896051;29;20290;-55
2023/05/01 12:45:53;;;;;;;2.00;2.00;;;15.70;99.90;;;;;;4892160;29;20219;-56
2023/05/01 12:48:20;;;;;;;1.97;1.97;;;15.70;99.90;;;;;;4894538;29;20203;-56
2023/05/01 12:50:53;;;;;;;2.27;2.27;;;15.70;99.90;;;;;;4896014;29;20207;-56